sensor_id;sensor_type;location;lat;lon;timestamp;pressure;altitude;pressure_sealevel;temperature;humidity
50696;BME280;36665;51.786;21.594;2023-02-20T00:00:54;91643.30;;;-1.17;73.69
50696;BME280;36665;51.786;21.594;2023-02-20T00:09:20;91679.75;;;-1.06;73.76
50696;BME280;36665;51.786;21.594;2023-02-20T00:17:42;91722.18;;;-0.93;73.75
50696;BME280;36665;51.786;21.594;2023-02-20T00:26:10;91766.43;;;-0.82;73.92
50696;BME280;36665;51.786;21.594;2023-02-20T00:34:34;91799.09;;;-0.74;73.85
50696;BME280;36665;51.786;21.594;2023-02-20T00:42:57;91822.84;;;-0.66;74.03
50696;BME280;36665;51.786;21.594;2023-02-20T00:51:22;91814.63;;;-0.69;73.97
50696;BME280;36665;51.786;21.594;2023-02-20T00:59:45;91799.87;;;-0.73;74.07
50696;BME280;36665;51.786;21.594;2023-02-20T01:08:08;91783.23;;;-0.78;73.86
50696;BME280;36665;51.786;21.594;2023-02-20T01:16:31;91789.70;;;-0.77;73.98
50696;BME280;36665;51.786;21.594;2023-02-20T01:24:55;91810.15;;;-0.71;74.12
50696;BME280;36665;51.786;21.594;2023-02-20T01:33:17;91819.69;;;-0.68;74.04
50696;BME280;36665;51.786;21.594;2023-02-20T01:41:41;91843.59;;;-0.62;74.24
50696;BME280;36665;51.786;21.594;2023-02-20T01:50:04;91869.02;;;-0.55;74.27
50696;BME280;36665;51.786;21.594;2023-02-20T01:58:35;91892.98;;;-0.47;74.10
50696;BME280;36665;51.786;21.594;2023-02-20T02:07:01;91906.25;;;-0.43;74.10
50696;BME280;36665;51.786;21.594;2023-02-20T02:15:24;91891.73;;;-0.48;74.34
50696;BME280;36665;51.786;21.594;2023-02-20T02:24:11;91885.34;;;-0.50;74.27
50696;BME280;36665;51.786;21.594;2023-02-20T02:33:06;91870.86;;;-0.53;74.32
50696;BME280;36665;51.786;21.594;2023-02-20T02:50:32;91907.17;;;-0.44;74.26
50696;BME280;36665;51.786;21.594;2023-02-20T02:58:58;91928.39;;;-0.38;74.38
50696;BME280;36665;51.786;21.594;2023-02-20T03:07:22;91948.35;;;-0.32;74.52
50696;BME280;36665;51.786;21.594;2023-02-20T03:15:52;91973.98;;;-0.26;74.41
50696;BME280;36665;51.786;21.594;2023-02-20T03:24:18;91952.65;;;-0.32;74.51
50696;BME280;36665;51.786;21.594;2023-02-20T03:32:43;91938.12;;;-0.35;74.40
50696;BME280;36665;51.786;21.594;2023-02-20T03:41:30;91967.31;;;-0.27;74.57
50696;BME280;36665;51.786;21.594;2023-02-20T03:50:14;91997.27;;;-0.19;74.43
50696;BME280;36665;51.786;21.594;2023-02-20T03:59:01;92000.44;;;-0.18;74.41
50696;BME280;36665;51.786;21.594;2023-02-20T04:07:34;92024.71;;;-0.12;74.28
50696;BME280;36665;51.786;21.594;2023-02-20T04:16:00;92080.68;;;0.03;74.45
50696;BME280;36665;51.786;21.594;2023-02-20T04:32:50;92145.35;;;0.22;74.70
50696;BME280;36665;51.786;21.594;2023-02-20T04:41:14;92128.14;;;0.17;74.67
50696;BME280;36665;51.786;21.594;2023-02-20T04:49:37;92069.79;;;0.01;74.50
50696;BME280;36665;51.786;21.594;2023-02-20T04:58:01;92004.89;;;-0.18;74.58
50696;BME280;36665;51.786;21.594;2023-02-20T05:06:31;91918.83;;;-0.40;74.56
50696;BME280;36665;51.786;21.594;2023-02-20T05:14:53;91866.68;;;-0.55;74.62
50696;BME280;36665;51.786;21.594;2023-02-20T05:23:17;91802.00;;;-0.73;74.44
50696;BME280;36665;51.786;21.594;2023-02-20T05:31:40;91761.16;;;-0.83;74.43
50696;BME280;36665;51.786;21.594;2023-02-20T05:40:04;91764.68;;;-0.82;74.19
50696;BME280;36665;51.786;21.594;2023-02-20T05:48:27;91781.27;;;-0.78;74.27
50696;BME280;36665;51.786;21.594;2023-02-20T05:56:50;91797.70;;;-0.74;74.34
50696;BME280;36665;51.786;21.594;2023-02-20T06:05:13;91823.08;;;-0.66;74.43
50696;BME280;36665;51.786;21.594;2023-02-20T06:13:40;91847.44;;;-0.59;74.24
50696;BME280;36665;51.786;21.594;2023-02-20T06:22:04;91907.31;;;-0.42;74.40
50696;BME280;36665;51.786;21.594;2023-02-20T06:30:27;91941.84;;;-0.33;74.72
50696;BME280;36665;51.786;21.594;2023-02-20T06:38:50;91961.29;;;-0.28;74.44
50696;BME280;36665;51.786;21.594;2023-02-20T06:47:14;92016.96;;;-0.13;74.56
50696;BME280;36665;51.786;21.594;2023-02-20T06:55:37;92104.52;;;0.11;74.79
50696;BME280;36665;51.786;21.594;2023-02-20T07:04:00;92198.59;;;0.36;74.67
50696;BME280;36665;51.786;21.594;2023-02-20T07:12:24;92294.03;;;0.63;74.83
50696;BME280;36665;51.786;21.594;2023-02-20T07:20:47;92394.30;;;0.90;75.10
50696;BME280;36665;51.786;21.594;2023-02-20T07:29:13;92440.15;;;1.02;75.07
50696;BME280;36665;51.786;21.594;2023-02-20T07:37:36;92492.14;;;1.17;75.14
50696;BME280;36665;51.786;21.594;2023-02-20T07:45:59;92712.57;;;1.76;75.23
50696;BME280;36665;51.786;21.594;2023-02-20T07:54:22;92917.67;;;2.32;75.44
50696;BME280;36665;51.786;21.594;2023-02-20T08:02:45;92986.05;;;2.50;75.38
50696;BME280;36665;51.786;21.594;2023-02-20T08:11:09;92989.10;;;2.50;75.45
50696;BME280;36665;51.786;21.594;2023-02-20T08:19:32;93026.94;;;2.60;75.27
50696;BME280;36665;51.786;21.594;2023-02-20T08:27:55;93044.14;;;2.65;75.38
50696;BME280;36665;51.786;21.594;2023-02-20T08:36:19;93046.22;;;2.65;75.52
50696;BME280;36665;51.786;21.594;2023-02-20T08:44:42;93088.77;;;2.77;75.50
50696;BME280;36665;51.786;21.594;2023-02-20T08:53:05;93140.73;;;2.90;75.61
50696;BME280;36665;51.786;21.594;2023-02-20T09:01:28;93186.65;;;3.02;75.44
50696;BME280;36665;51.786;21.594;2023-02-20T09:09:51;93268.32;;;3.25;75.62
50696;BME280;36665;51.786;21.594;2023-02-20T09:18:14;93320.28;;;3.39;75.67
50696;BME280;36665;51.786;21.594;2023-02-20T09:26:37;93312.11;;;3.35;75.46
50696;BME280;36665;51.786;21.594;2023-02-20T09:34:59;93184.13;;;3.00;75.43
50696;BME280;36665;51.786;21.594;2023-02-20T09:51:59;92964.79;;;2.42;75.23
50696;BME280;36665;51.786;21.594;2023-02-20T10:00:29;92920.48;;;2.30;75.09
50696;BME280;36665;51.786;21.594;2023-02-20T10:08:54;92897.58;;;2.23;75.23
50696;BME280;36665;51.786;21.594;2023-02-20T10:17:41;92877.47;;;2.19;75.26
50696;BME280;36665;51.786;21.594;2023-02-20T10:26:19;92820.76;;;2.03;75.26
50696;BME280;36665;51.786;21.594;2023-02-20T10:35:25;92763.51;;;1.88;75.25
50696;BME280;36665;51.786;21.594;2023-02-20T10:43:58;92729.09;;;1.78;75.17
50696;BME280;36665;51.786;21.594;2023-02-20T10:52:38;92683.41;;;1.66;75.22
50696;BME280;36665;51.786;21.594;2023-02-20T11:01:09;92647.02;;;1.56;75.10
50696;BME280;36665;51.786;21.594;2023-02-20T11:09:34;92623.03;;;1.50;75.07
50696;BME280;36665;51.786;21.594;2023-02-20T11:17:58;92597.39;;;1.43;75.40
50696;BME280;36665;51.786;21.594;2023-02-20T11:26:26;92584.27;;;1.38;75.20
50696;BME280;36665;51.786;21.594;2023-02-20T11:43:33;92569.51;;;1.35;75.40
50696;BME280;36665;51.786;21.594;2023-02-20T11:52:27;92572.09;;;1.35;75.36
50696;BME280;36665;51.786;21.594;2023-02-20T12:00:52;92564.31;;;1.33;75.71
50696;BME280;36665;51.786;21.594;2023-02-20T12:09:23;92571.39;;;1.34;75.50
50696;BME280;36665;51.786;21.594;2023-02-20T12:26:45;92619.98;;;1.48;75.68
50696;BME280;36665;51.786;21.594;2023-02-20T13:01:23;92890.02;;;2.20;76.08
50696;BME280;36665;51.786;21.594;2023-02-20T13:10:15;92983.81;;;2.45;76.35
50696;BME280;36665;51.786;21.594;2023-02-20T13:18:45;93081.89;;;2.70;76.47
50696;BME280;36665;51.786;21.594;2023-02-20T13:27:28;93190.13;;;2.98;76.53
50696;BME280;36665;51.786;21.594;2023-02-20T13:35:54;93274.14;;;3.20;76.71
50696;BME280;36665;51.786;21.594;2023-02-20T13:44:36;93345.62;;;3.41;76.79
50696;BME280;36665;51.786;21.594;2023-02-20T13:53:02;93397.05;;;3.54;76.87
50696;BME280;36665;51.786;21.594;2023-02-20T14:01:25;93428.09;;;3.62;77.04
50696;BME280;36665;51.786;21.594;2023-02-20T14:09:58;93457.33;;;3.70;77.05
50696;BME280;36665;51.786;21.594;2023-02-20T14:18:27;93488.14;;;3.76;77.15
50696;BME280;36665;51.786;21.594;2023-02-20T14:26:51;93519.84;;;3.85;77.30
50696;BME280;36665;51.786;21.594;2023-02-20T14:44:38;93586.87;;;4.03;77.39
50696;BME280;36665;51.786;21.594;2023-02-20T15:01:39;93652.52;;;4.20;77.26
50696;BME280;36665;51.786;21.594;2023-02-20T15:10:22;93688.86;;;4.28;77.40
50696;BME280;36665;51.786;21.594;2023-02-20T15:18:48;93727.06;;;4.38;77.60
50696;BME280;36665;51.786;21.594;2023-02-20T15:27:18;93774.30;;;4.50;77.47
50696;BME280;36665;51.786;21.594;2023-02-20T15:35:44;93851.83;;;4.71;77.33
50696;BME280;36665;51.786;21.594;2023-02-20T15:44:08;93917.49;;;4.89;77.59
50696;BME280;36665;51.786;21.594;2023-02-20T15:52:32;93985.83;;;5.06;77.58
50696;BME280;36665;51.786;21.594;2023-02-20T16:00:55;94052.92;;;5.22;77.67
50696;BME280;36665;51.786;21.594;2023-02-20T16:09:58;94142.98;;;5.48;77.83
50696;BME280;36665;51.786;21.594;2023-02-20T16:18:22;94209.25;;;5.64;77.64
50696;BME280;36665;51.786;21.594;2023-02-20T16:26:47;94269.23;;;5.79;77.74
50696;BME280;36665;51.786;21.594;2023-02-20T16:35:12;94308.86;;;5.89;77.81
50696;BME280;36665;51.786;21.594;2023-02-20T16:43:36;94356.40;;;6.02;77.97
50696;BME280;36665;51.786;21.594;2023-02-20T16:51:59;94390.23;;;6.11;77.78
50696;BME280;36665;51.786;21.594;2023-02-20T17:00:28;94404.95;;;6.14;77.93
50696;BME280;36665;51.786;21.594;2023-02-20T17:08:52;94415.65;;;6.17;78.00
50696;BME280;36665;51.786;21.594;2023-02-20T17:17:15;94442.98;;;6.24;78.02
50696;BME280;36665;51.786;21.594;2023-02-20T17:25:38;94441.95;;;6.24;77.76
50696;BME280;36665;51.786;21.594;2023-02-20T17:34:01;94427.38;;;6.19;77.71
50696;BME280;36665;51.786;21.594;2023-02-20T17:42:26;94409.01;;;6.15;77.66
50696;BME280;36665;51.786;21.594;2023-02-20T17:50:49;94395.60;;;6.11;77.86
50696;BME280;36665;51.786;21.594;2023-02-20T17:59:12;94401.48;;;6.12;77.57
50696;BME280;36665;51.786;21.594;2023-02-20T18:07:35;94412.72;;;6.14;77.87
50696;BME280;36665;51.786;21.594;2023-02-20T18:15:59;94424.96;;;6.18;77.92
50696;BME280;36665;51.786;21.594;2023-02-20T18:24:23;94448.96;;;6.24;78.04
50696;BME280;36665;51.786;21.594;2023-02-20T18:32:47;94480.98;;;6.32;78.09
50696;BME280;36665;51.786;21.594;2023-02-20T18:41:11;94532.09;;;6.46;77.99
50696;BME280;36665;51.786;21.594;2023-02-20T18:49:34;94554.94;;;6.51;78.02
50696;BME280;36665;51.786;21.594;2023-02-20T18:57:58;94545.98;;;6.49;78.04
50696;BME280;36665;51.786;21.594;2023-02-20T19:06:32;94546.14;;;6.49;77.94
50696;BME280;36665;51.786;21.594;2023-02-20T19:14:56;94548.48;;;6.50;78.02
50696;BME280;36665;51.786;21.594;2023-02-20T19:23:18;94537.60;;;6.47;78.05
50696;BME280;36665;51.786;21.594;2023-02-20T19:31:42;94523.17;;;6.42;77.90
50696;BME280;36665;51.786;21.594;2023-02-20T19:40:06;94514.90;;;6.40;77.99
50696;BME280;36665;51.786;21.594;2023-02-20T19:48:31;94512.42;;;6.38;78.14
50696;BME280;36665;51.786;21.594;2023-02-20T19:56:56;94497.04;;;6.35;78.12
50696;BME280;36665;51.786;21.594;2023-02-20T20:05:20;94481.76;;;6.31;77.92
50696;BME280;36665;51.786;21.594;2023-02-20T20:13:43;94472.68;;;6.28;78.03
50696;BME280;36665;51.786;21.594;2023-02-20T20:22:06;94458.86;;;6.25;77.90
50696;BME280;36665;51.786;21.594;2023-02-20T20:30:30;94440.53;;;6.20;78.28
50696;BME280;36665;51.786;21.594;2023-02-20T20:38:53;94424.36;;;6.15;78.26
50696;BME280;36665;51.786;21.594;2023-02-20T20:47:17;94409.36;;;6.11;78.29
50696;BME280;36665;51.786;21.594;2023-02-20T20:55:41;94402.02;;;6.09;78.34
50696;BME280;36665;51.786;21.594;2023-02-20T21:04:04;94392.95;;;6.06;78.26
50696;BME280;36665;51.786;21.594;2023-02-20T21:12:27;94388.17;;;6.05;78.50
50696;BME280;36665;51.786;21.594;2023-02-20T21:20:50;94396.19;;;6.06;78.50
50696;BME280;36665;51.786;21.594;2023-02-20T21:29:13;94411.23;;;6.09;78.27
50696;BME280;36665;51.786;21.594;2023-02-20T21:37:36;94422.39;;;6.12;78.39
50696;BME280;36665;51.786;21.594;2023-02-20T21:45:59;94431.50;;;6.15;78.54
50696;BME280;36665;51.786;21.594;2023-02-20T21:54:26;94433.83;;;6.15;78.73
50696;BME280;36665;51.786;21.594;2023-02-20T22:02:49;94438.60;;;6.16;78.77
50696;BME280;36665;51.786;21.594;2023-02-20T22:11:13;94441.61;;;6.17;78.73
50696;BME280;36665;51.786;21.594;2023-02-20T22:19:55;94452.17;;;6.19;78.67
50696;BME280;36665;51.786;21.594;2023-02-20T22:28:37;94461.48;;;6.21;78.81
50696;BME280;36665;51.786;21.594;2023-02-20T22:37:19;94473.32;;;6.23;78.78
50696;BME280;36665;51.786;21.594;2023-02-20T22:46:02;94483.08;;;6.25;79.05
50696;BME280;36665;51.786;21.594;2023-02-20T22:54:44;94496.00;;;6.29;79.05
50696;BME280;36665;51.786;21.594;2023-02-20T23:03:36;94484.43;;;6.26;78.87
50696;BME280;36665;51.786;21.594;2023-02-20T23:12:19;94471.59;;;6.22;79.11
50696;BME280;36665;51.786;21.594;2023-02-20T23:21:01;94466.17;;;6.21;79.09
50696;BME280;36665;51.786;21.594;2023-02-20T23:29:42;94467.45;;;6.21;79.07
50696;BME280;36665;51.786;21.594;2023-02-20T23:38:27;94463.23;;;6.21;79.11
50696;BME280;36665;51.786;21.594;2023-02-20T23:47:09;94449.85;;;6.17;78.98
50696;BME280;36665;51.786;21.594;2023-02-20T23:55:51;94438.53;;;6.13;79.16
